sensor_id;sensor_type;location;lat;lon;timestamp;P1;durP1;ratioP1;P2;durP2;ratioP2
23400;SDS011;11873;49.300;8.920;2023-07-09T00:04:43;4.03;;;2.60;;
23400;SDS011;11873;49.300;8.920;2023-07-09T00:09:43;3.93;;;2.80;;
23400;SDS011;11873;49.300;8.920;2023-07-09T00:14:44;6.43;;;3.43;;
23400;SDS011;11873;49.300;8.920;2023-07-09T00:19:44;4.20;;;3.70;;
23400;SDS011;11873;49.300;8.920;2023-07-09T00:24:49;4.33;;;3.20;;
23400;SDS011;11873;49.300;8.920;2023-07-09T00:29:50;4.30;;;2.90;;
23400;SDS011;11873;49.300;8.920;2023-07-09T00:34:51;4.77;;;3.20;;
23400;SDS011;11873;49.300;8.920;2023-07-09T00:39:51;3.63;;;2.90;;
23400;SDS011;11873;49.300;8.920;2023-07-09T00:44:52;4.57;;;3.03;;
23400;SDS011;11873;49.300;8.920;2023-07-09T00:49:56;4.30;;;2.97;;
23400;SDS011;11873;49.300;8.920;2023-07-09T00:54:59;5.73;;;3.00;;
23400;SDS011;11873;49.300;8.920;2023-07-09T01:00:03;5.17;;;3.17;;
23400;SDS011;11873;49.300;8.920;2023-07-09T01:05:03;4.10;;;2.90;;
23400;SDS011;11873;49.300;8.920;2023-07-09T01:10:04;3.97;;;3.13;;
23400;SDS011;11873;49.300;8.920;2023-07-09T01:15:04;3.27;;;2.83;;
23400;SDS011;11873;49.300;8.920;2023-07-09T01:20:06;5.70;;;3.07;;
23400;SDS011;11873;49.300;8.920;2023-07-09T01:25:07;4.47;;;2.77;;
23400;SDS011;11873;49.300;8.920;2023-07-09T01:30:09;3.20;;;2.50;;
23400;SDS011;11873;49.300;8.920;2023-07-09T01:35:09;3.80;;;2.73;;
23400;SDS011;11873;49.300;8.920;2023-07-09T01:40:11;3.97;;;3.23;;
23400;SDS011;11873;49.300;8.920;2023-07-09T01:45:12;3.90;;;2.60;;
23400;SDS011;11873;49.300;8.920;2023-07-09T01:50:12;3.97;;;2.83;;
23400;SDS011;11873;49.300;8.920;2023-07-09T01:55:13;5.17;;;3.70;;
23400;SDS011;11873;49.300;8.920;2023-07-09T02:00:14;3.80;;;2.97;;
23400;SDS011;11873;49.300;8.920;2023-07-09T02:05:16;5.43;;;3.33;;
23400;SDS011;11873;49.300;8.920;2023-07-09T02:10:16;3.93;;;2.90;;
23400;SDS011;11873;49.300;8.920;2023-07-09T02:15:17;3.03;;;2.83;;
23400;SDS011;11873;49.300;8.920;2023-07-09T02:20:17;3.17;;;2.87;;
23400;SDS011;11873;49.300;8.920;2023-07-09T02:25:17;3.63;;;3.00;;
23400;SDS011;11873;49.300;8.920;2023-07-09T02:30:18;5.07;;;3.40;;
23400;SDS011;11873;49.300;8.920;2023-07-09T02:35:18;3.77;;;3.00;;
23400;SDS011;11873;49.300;8.920;2023-07-09T02:40:18;5.60;;;3.80;;
23400;SDS011;11873;49.300;8.920;2023-07-09T02:45:18;3.73;;;3.13;;
23400;SDS011;11873;49.300;8.920;2023-07-09T02:50:18;6.90;;;3.17;;
23400;SDS011;11873;49.300;8.920;2023-07-09T02:55:18;5.33;;;3.10;;
23400;SDS011;11873;49.300;8.920;2023-07-09T03:00:19;3.30;;;2.60;;
23400;SDS011;11873;49.300;8.920;2023-07-09T03:05:19;4.47;;;2.80;;
23400;SDS011;11873;49.300;8.920;2023-07-09T03:10:19;4.03;;;3.00;;
23400;SDS011;11873;49.300;8.920;2023-07-09T03:15:19;4.33;;;2.80;;
23400;SDS011;11873;49.300;8.920;2023-07-09T03:20:19;3.80;;;3.07;;
23400;SDS011;11873;49.300;8.920;2023-07-09T03:25:19;6.67;;;3.20;;
23400;SDS011;11873;49.300;8.920;2023-07-09T03:30:20;3.13;;;2.80;;
23400;SDS011;11873;49.300;8.920;2023-07-09T03:35:20;4.00;;;3.03;;
23400;SDS011;11873;49.300;8.920;2023-07-09T03:40:21;4.57;;;2.90;;
23400;SDS011;11873;49.300;8.920;2023-07-09T03:45:21;4.37;;;2.83;;
23400;SDS011;11873;49.300;8.920;2023-07-09T03:50:21;4.00;;;3.20;;
23400;SDS011;11873;49.300;8.920;2023-07-09T03:55:22;3.63;;;3.03;;
23400;SDS011;11873;49.300;8.920;2023-07-09T04:00:22;3.93;;;3.10;;
23400;SDS011;11873;49.300;8.920;2023-07-09T04:05:23;5.43;;;2.53;;
23400;SDS011;11873;49.300;8.920;2023-07-09T04:10:23;4.40;;;3.10;;
23400;SDS011;11873;49.300;8.920;2023-07-09T04:15:23;3.40;;;3.10;;
23400;SDS011;11873;49.300;8.920;2023-07-09T04:20:24;4.63;;;2.97;;
23400;SDS011;11873;49.300;8.920;2023-07-09T04:25:24;4.93;;;3.20;;
23400;SDS011;11873;49.300;8.920;2023-07-09T04:30:24;2.67;;;2.47;;
23400;SDS011;11873;49.300;8.920;2023-07-09T04:35:24;3.50;;;3.10;;
23400;SDS011;11873;49.300;8.920;2023-07-09T04:40:24;3.40;;;3.07;;
23400;SDS011;11873;49.300;8.920;2023-07-09T04:45:25;3.10;;;2.77;;
23400;SDS011;11873;49.300;8.920;2023-07-09T04:50:25;4.63;;;2.70;;
23400;SDS011;11873;49.300;8.920;2023-07-09T04:55:25;3.40;;;3.10;;
23400;SDS011;11873;49.300;8.920;2023-07-09T05:00:25;5.30;;;3.60;;
23400;SDS011;11873;49.300;8.920;2023-07-09T05:05:25;3.43;;;3.13;;
23400;SDS011;11873;49.300;8.920;2023-07-09T05:10:25;3.93;;;3.27;;
23400;SDS011;11873;49.300;8.920;2023-07-09T05:15:26;4.83;;;3.23;;
23400;SDS011;11873;49.300;8.920;2023-07-09T05:20:26;4.30;;;2.80;;
23400;SDS011;11873;49.300;8.920;2023-07-09T05:25:26;5.33;;;3.57;;
23400;SDS011;11873;49.300;8.920;2023-07-09T05:30:26;3.40;;;2.80;;
23400;SDS011;11873;49.300;8.920;2023-07-09T05:35:27;3.07;;;2.73;;
23400;SDS011;11873;49.300;8.920;2023-07-09T05:40:27;5.83;;;3.50;;
23400;SDS011;11873;49.300;8.920;2023-07-09T05:45:27;6.23;;;3.70;;
23400;SDS011;11873;49.300;8.920;2023-07-09T05:50:27;3.63;;;3.30;;
23400;SDS011;11873;49.300;8.920;2023-07-09T05:55:28;3.97;;;3.40;;
23400;SDS011;11873;49.300;8.920;2023-07-09T06:00:28;4.43;;;3.40;;
23400;SDS011;11873;49.300;8.920;2023-07-09T06:05:28;3.27;;;2.97;;
23400;SDS011;11873;49.300;8.920;2023-07-09T06:10:28;4.67;;;3.60;;
23400;SDS011;11873;49.300;8.920;2023-07-09T06:15:28;4.13;;;3.53;;
23400;SDS011;11873;49.300;8.920;2023-07-09T06:20:29;4.90;;;3.50;;
23400;SDS011;11873;49.300;8.920;2023-07-09T06:25:29;5.47;;;2.77;;
23400;SDS011;11873;49.300;8.920;2023-07-09T06:30:29;3.83;;;3.07;;
23400;SDS011;11873;49.300;8.920;2023-07-09T06:35:29;4.00;;;3.33;;
23400;SDS011;11873;49.300;8.920;2023-07-09T06:40:29;4.20;;;3.20;;
23400;SDS011;11873;49.300;8.920;2023-07-09T06:45:30;3.13;;;2.87;;
23400;SDS011;11873;49.300;8.920;2023-07-09T06:50:32;4.03;;;3.53;;
23400;SDS011;11873;49.300;8.920;2023-07-09T06:55:33;4.63;;;3.07;;
23400;SDS011;11873;49.300;8.920;2023-07-09T07:00:36;4.83;;;3.63;;
23400;SDS011;11873;49.300;8.920;2023-07-09T07:05:36;5.57;;;3.30;;
23400;SDS011;11873;49.300;8.920;2023-07-09T07:10:36;5.10;;;3.07;;
23400;SDS011;11873;49.300;8.920;2023-07-09T07:15:37;3.73;;;3.07;;
23400;SDS011;11873;49.300;8.920;2023-07-09T07:20:37;3.73;;;3.43;;
23400;SDS011;11873;49.300;8.920;2023-07-09T07:25:37;4.27;;;3.20;;
23400;SDS011;11873;49.300;8.920;2023-07-09T07:30:37;3.50;;;2.93;;
23400;SDS011;11873;49.300;8.920;2023-07-09T07:35:37;8.80;;;3.83;;
23400;SDS011;11873;49.300;8.920;2023-07-09T07:40:38;3.20;;;2.93;;
23400;SDS011;11873;49.300;8.920;2023-07-09T07:45:41;3.50;;;3.20;;
23400;SDS011;11873;49.300;8.920;2023-07-09T07:50:42;5.40;;;3.33;;
23400;SDS011;11873;49.300;8.920;2023-07-09T07:55:42;3.07;;;2.77;;
23400;SDS011;11873;49.300;8.920;2023-07-09T08:00:42;3.50;;;3.20;;
23400;SDS011;11873;49.300;8.920;2023-07-09T08:05:42;4.53;;;3.23;;
23400;SDS011;11873;49.300;8.920;2023-07-09T08:10:49;5.83;;;3.17;;
23400;SDS011;11873;49.300;8.920;2023-07-09T08:15:49;5.07;;;3.30;;
23400;SDS011;11873;49.300;8.920;2023-07-09T08:20:50;3.67;;;3.20;;
23400;SDS011;11873;49.300;8.920;2023-07-09T08:25:53;3.50;;;2.80;;
23400;SDS011;11873;49.300;8.920;2023-07-09T08:30:54;6.47;;;3.23;;
23400;SDS011;11873;49.300;8.920;2023-07-09T08:35:54;5.60;;;3.10;;
23400;SDS011;11873;49.300;8.920;2023-07-09T08:41:08;4.87;;;3.40;;
23400;SDS011;11873;49.300;8.920;2023-07-09T08:51:35;4.07;;;3.20;;
23400;SDS011;11873;49.300;8.920;2023-07-09T08:56:36;5.13;;;2.80;;
23400;SDS011;11873;49.300;8.920;2023-07-09T09:01:36;3.90;;;3.10;;
23400;SDS011;11873;49.300;8.920;2023-07-09T09:06:38;4.22;;;3.30;;
23400;SDS011;11873;49.300;8.920;2023-07-09T09:11:42;3.33;;;3.00;;
23400;SDS011;11873;49.300;8.920;2023-07-09T09:16:43;4.68;;;3.22;;
23400;SDS011;11873;49.300;8.920;2023-07-09T09:21:44;3.08;;;2.78;;
23400;SDS011;11873;49.300;8.920;2023-07-09T09:26:45;4.93;;;2.80;;
23400;SDS011;11873;49.300;8.920;2023-07-09T09:31:48;3.43;;;2.67;;
23400;SDS011;11873;49.300;8.920;2023-07-09T09:36:50;3.37;;;3.00;;
23400;SDS011;11873;49.300;8.920;2023-07-09T09:41:52;3.50;;;3.03;;
23400;SDS011;11873;49.300;8.920;2023-07-09T09:46:55;3.10;;;2.80;;
23400;SDS011;11873;49.300;8.920;2023-07-09T09:52:01;5.10;;;3.00;;
23400;SDS011;11873;49.300;8.920;2023-07-09T09:57:01;4.23;;;3.07;;
23400;SDS011;11873;49.300;8.920;2023-07-09T10:02:05;3.73;;;2.87;;
23400;SDS011;11873;49.300;8.920;2023-07-09T10:07:21;2.80;;;2.47;;
23400;SDS011;11873;49.300;8.920;2023-07-09T10:17:35;3.03;;;2.37;;
23400;SDS011;11873;49.300;8.920;2023-07-09T10:27:43;3.97;;;2.40;;
23400;SDS011;11873;49.300;8.920;2023-07-09T10:32:52;2.73;;;2.53;;
23400;SDS011;11873;49.300;8.920;2023-07-09T10:43:05;2.90;;;2.13;;
23400;SDS011;11873;49.300;8.920;2023-07-09T10:48:31;2.07;;;1.87;;
23400;SDS011;11873;49.300;8.920;2023-07-09T10:53:28;2.73;;;2.10;;
23400;SDS011;11873;49.300;8.920;2023-07-09T10:58:35;2.63;;;2.20;;
23400;SDS011;11873;49.300;8.920;2023-07-09T11:08:36;3.00;;;2.63;;
23400;SDS011;11873;49.300;8.920;2023-07-09T11:13:39;5.67;;;2.73;;
23400;SDS011;11873;49.300;8.920;2023-07-09T11:18:40;2.00;;;1.80;;
23400;SDS011;11873;49.300;8.920;2023-07-09T11:23:51;3.17;;;2.07;;
23400;SDS011;11873;49.300;8.920;2023-07-09T11:39:16;2.60;;;2.30;;
23400;SDS011;11873;49.300;8.920;2023-07-09T11:44:18;3.10;;;2.33;;
23400;SDS011;11873;49.300;8.920;2023-07-09T11:49:20;2.07;;;1.93;;
23400;SDS011;11873;49.300;8.920;2023-07-09T11:54:21;5.73;;;2.77;;
23400;SDS011;11873;49.300;8.920;2023-07-09T11:59:21;3.80;;;2.57;;
23400;SDS011;11873;49.300;8.920;2023-07-09T12:04:22;5.33;;;2.47;;
23400;SDS011;11873;49.300;8.920;2023-07-09T12:09:30;5.03;;;2.47;;
23400;SDS011;11873;49.300;8.920;2023-07-09T12:14:31;3.33;;;2.50;;
23400;SDS011;11873;49.300;8.920;2023-07-09T12:19:31;2.87;;;2.57;;
23400;SDS011;11873;49.300;8.920;2023-07-09T12:24:36;2.63;;;2.43;;
23400;SDS011;11873;49.300;8.920;2023-07-09T12:29:36;5.65;;;2.75;;
23400;SDS011;11873;49.300;8.920;2023-07-09T12:34:36;2.80;;;2.53;;
23400;SDS011;11873;49.300;8.920;2023-07-09T12:39:37;4.93;;;2.87;;
23400;SDS011;11873;49.300;8.920;2023-07-09T12:44:37;3.17;;;2.43;;
23400;SDS011;11873;49.300;8.920;2023-07-09T12:49:38;4.07;;;2.33;;
23400;SDS011;11873;49.300;8.920;2023-07-09T12:54:39;2.33;;;2.00;;
23400;SDS011;11873;49.300;8.920;2023-07-09T12:59:39;4.43;;;2.73;;
23400;SDS011;11873;49.300;8.920;2023-07-09T13:04:40;3.08;;;2.75;;
23400;SDS011;11873;49.300;8.920;2023-07-09T13:09:47;4.90;;;2.67;;
23400;SDS011;11873;49.300;8.920;2023-07-09T13:14:53;4.30;;;2.27;;
23400;SDS011;11873;49.300;8.920;2023-07-09T13:19:54;5.20;;;2.73;;
23400;SDS011;11873;49.300;8.920;2023-07-09T13:24:54;2.63;;;2.33;;
23400;SDS011;11873;49.300;8.920;2023-07-09T13:29:54;3.33;;;2.13;;
23400;SDS011;11873;49.300;8.920;2023-07-09T13:34:54;2.90;;;2.50;;
23400;SDS011;11873;49.300;8.920;2023-07-09T13:39:54;5.33;;;3.10;;
23400;SDS011;11873;49.300;8.920;2023-07-09T13:44:54;4.37;;;2.83;;
23400;SDS011;11873;49.300;8.920;2023-07-09T13:49:55;3.70;;;2.53;;
23400;SDS011;11873;49.300;8.920;2023-07-09T13:54:55;3.43;;;2.50;;
23400;SDS011;11873;49.300;8.920;2023-07-09T13:59:58;2.67;;;2.30;;
23400;SDS011;11873;49.300;8.920;2023-07-09T14:05:02;3.72;;;2.67;;
23400;SDS011;11873;49.300;8.920;2023-07-09T14:10:03;5.00;;;2.58;;
23400;SDS011;11873;49.300;8.920;2023-07-09T14:15:37;4.17;;;3.03;;
23400;SDS011;11873;49.300;8.920;2023-07-09T14:20:30;3.00;;;2.70;;
23400;SDS011;11873;49.300;8.920;2023-07-09T14:25:31;3.77;;;2.50;;
23400;SDS011;11873;49.300;8.920;2023-07-09T14:30:31;4.37;;;2.70;;
23400;SDS011;11873;49.300;8.920;2023-07-09T14:35:31;2.97;;;2.20;;
23400;SDS011;11873;49.300;8.920;2023-07-09T14:40:31;4.45;;;2.87;;
23400;SDS011;11873;49.300;8.920;2023-07-09T14:45:31;3.50;;;2.70;;
23400;SDS011;11873;49.300;8.920;2023-07-09T14:50:31;6.17;;;2.83;;
23400;SDS011;11873;49.300;8.920;2023-07-09T14:55:32;4.32;;;2.67;;
23400;SDS011;11873;49.300;8.920;2023-07-09T15:00:32;2.73;;;2.33;;
23400;SDS011;11873;49.300;8.920;2023-07-09T15:05:32;3.28;;;2.95;;
23400;SDS011;11873;49.300;8.920;2023-07-09T15:10:32;3.70;;;2.10;;
23400;SDS011;11873;49.300;8.920;2023-07-09T15:15:32;2.87;;;2.57;;
23400;SDS011;11873;49.300;8.920;2023-07-09T15:20:32;3.37;;;2.72;;
23400;SDS011;11873;49.300;8.920;2023-07-09T15:25:33;3.90;;;2.55;;
23400;SDS011;11873;49.300;8.920;2023-07-09T15:30:33;4.20;;;2.53;;
23400;SDS011;11873;49.300;8.920;2023-07-09T15:35:33;3.13;;;2.20;;
23400;SDS011;11873;49.300;8.920;2023-07-09T15:40:34;4.00;;;2.20;;
23400;SDS011;11873;49.300;8.920;2023-07-09T15:45:37;4.33;;;2.67;;
23400;SDS011;11873;49.300;8.920;2023-07-09T15:50:39;2.53;;;2.20;;
23400;SDS011;11873;49.300;8.920;2023-07-09T15:55:39;3.72;;;2.80;;
23400;SDS011;11873;49.300;8.920;2023-07-09T16:00:39;4.23;;;2.50;;
23400;SDS011;11873;49.300;8.920;2023-07-09T16:05:40;3.33;;;2.83;;
23400;SDS011;11873;49.300;8.920;2023-07-09T16:10:40;2.67;;;2.17;;
23400;SDS011;11873;49.300;8.920;2023-07-09T16:15:40;4.40;;;2.73;;
23400;SDS011;11873;49.300;8.920;2023-07-09T16:20:41;3.03;;;2.40;;
23400;SDS011;11873;49.300;8.920;2023-07-09T16:25:41;4.43;;;2.77;;
23400;SDS011;11873;49.300;8.920;2023-07-09T16:30:41;3.33;;;2.30;;
23400;SDS011;11873;49.300;8.920;2023-07-09T16:35:41;3.53;;;2.40;;
23400;SDS011;11873;49.300;8.920;2023-07-09T16:40:41;2.83;;;2.57;;
23400;SDS011;11873;49.300;8.920;2023-07-09T16:45:42;3.10;;;2.37;;
23400;SDS011;11873;49.300;8.920;2023-07-09T16:50:42;3.83;;;2.70;;
23400;SDS011;11873;49.300;8.920;2023-07-09T16:55:43;3.30;;;2.50;;
23400;SDS011;11873;49.300;8.920;2023-07-09T17:00:43;4.10;;;2.53;;
23400;SDS011;11873;49.300;8.920;2023-07-09T17:05:43;4.93;;;2.47;;
23400;SDS011;11873;49.300;8.920;2023-07-09T17:16:07;5.13;;;2.47;;
23400;SDS011;11873;49.300;8.920;2023-07-09T17:21:08;4.15;;;2.58;;
23400;SDS011;11873;49.300;8.920;2023-07-09T17:26:08;2.67;;;2.42;;
23400;SDS011;11873;49.300;8.920;2023-07-09T17:31:08;3.77;;;2.70;;
23400;SDS011;11873;49.300;8.920;2023-07-09T17:36:09;3.67;;;2.53;;
23400;SDS011;11873;49.300;8.920;2023-07-09T17:41:11;4.10;;;2.97;;
23400;SDS011;11873;49.300;8.920;2023-07-09T17:46:12;5.75;;;2.80;;
23400;SDS011;11873;49.300;8.920;2023-07-09T17:51:13;4.87;;;3.70;;
23400;SDS011;11873;49.300;8.920;2023-07-09T17:56:18;5.30;;;4.80;;
23400;SDS011;11873;49.300;8.920;2023-07-09T18:01:19;6.23;;;4.33;;
23400;SDS011;11873;49.300;8.920;2023-07-09T18:06:19;6.07;;;3.27;;
23400;SDS011;11873;49.300;8.920;2023-07-09T18:11:21;3.60;;;3.10;;
23400;SDS011;11873;49.300;8.920;2023-07-09T18:16:21;4.20;;;2.90;;
23400;SDS011;11873;49.300;8.920;2023-07-09T18:21:21;4.40;;;3.20;;
23400;SDS011;11873;49.300;8.920;2023-07-09T18:26:21;4.83;;;3.60;;
23400;SDS011;11873;49.300;8.920;2023-07-09T18:31:22;3.87;;;3.10;;
23400;SDS011;11873;49.300;8.920;2023-07-09T18:36:22;8.98;;;3.47;;
23400;SDS011;11873;49.300;8.920;2023-07-09T18:41:22;4.00;;;3.23;;
23400;SDS011;11873;49.300;8.920;2023-07-09T18:46:22;3.03;;;2.50;;
23400;SDS011;11873;49.300;8.920;2023-07-09T18:51:22;3.20;;;2.77;;
23400;SDS011;11873;49.300;8.920;2023-07-09T18:56:22;5.12;;;3.45;;
23400;SDS011;11873;49.300;8.920;2023-07-09T19:01:23;6.00;;;4.10;;
23400;SDS011;11873;49.300;8.920;2023-07-09T19:06:23;3.47;;;3.10;;
23400;SDS011;11873;49.300;8.920;2023-07-09T19:11:23;4.62;;;3.65;;
23400;SDS011;11873;49.300;8.920;2023-07-09T19:16:24;8.60;;;4.03;;
23400;SDS011;11873;49.300;8.920;2023-07-09T19:21:26;5.28;;;3.00;;
23400;SDS011;11873;49.300;8.920;2023-07-09T19:26:26;4.43;;;2.65;;
23400;SDS011;11873;49.300;8.920;2023-07-09T19:31:26;3.87;;;2.97;;
23400;SDS011;11873;49.300;8.920;2023-07-09T19:36:26;3.83;;;2.90;;
23400;SDS011;11873;49.300;8.920;2023-07-09T19:41:26;6.87;;;2.73;;
23400;SDS011;11873;49.300;8.920;2023-07-09T19:46:26;4.57;;;2.67;;
23400;SDS011;11873;49.300;8.920;2023-07-09T19:51:27;7.13;;;3.20;;
23400;SDS011;11873;49.300;8.920;2023-07-09T19:56:27;4.97;;;2.97;;
23400;SDS011;11873;49.300;8.920;2023-07-09T20:01:27;4.70;;;2.73;;
23400;SDS011;11873;49.300;8.920;2023-07-09T20:06:28;3.08;;;2.60;;
23400;SDS011;11873;49.300;8.920;2023-07-09T20:11:28;3.47;;;2.65;;
23400;SDS011;11873;49.300;8.920;2023-07-09T20:16:28;3.67;;;3.03;;
23400;SDS011;11873;49.300;8.920;2023-07-09T20:21:28;5.85;;;3.28;;
23400;SDS011;11873;49.300;8.920;2023-07-09T20:26:28;5.82;;;3.25;;
23400;SDS011;11873;49.300;8.920;2023-07-09T20:31:29;6.85;;;3.95;;
23400;SDS011;11873;49.300;8.920;2023-07-09T20:36:29;3.92;;;3.22;;
23400;SDS011;11873;49.300;8.920;2023-07-09T20:41:29;3.28;;;2.92;;
23400;SDS011;11873;49.300;8.920;2023-07-09T20:46:29;3.47;;;3.13;;
23400;SDS011;11873;49.300;8.920;2023-07-09T20:51:29;5.90;;;3.70;;
23400;SDS011;11873;49.300;8.920;2023-07-09T20:56:29;3.67;;;2.92;;
23400;SDS011;11873;49.300;8.920;2023-07-09T21:01:30;7.25;;;3.60;;
23400;SDS011;11873;49.300;8.920;2023-07-09T21:06:30;4.78;;;3.22;;
23400;SDS011;11873;49.300;8.920;2023-07-09T21:11:30;5.22;;;3.85;;
23400;SDS011;11873;49.300;8.920;2023-07-09T21:16:30;6.25;;;3.30;;
23400;SDS011;11873;49.300;8.920;2023-07-09T21:21:30;5.15;;;3.50;;
23400;SDS011;11873;49.300;8.920;2023-07-09T21:26:31;4.97;;;3.53;;
23400;SDS011;11873;49.300;8.920;2023-07-09T21:31:31;5.00;;;3.43;;
23400;SDS011;11873;49.300;8.920;2023-07-09T21:36:31;6.37;;;3.55;;
23400;SDS011;11873;49.300;8.920;2023-07-09T21:41:31;3.55;;;3.17;;
23400;SDS011;11873;49.300;8.920;2023-07-09T21:46:31;4.18;;;3.17;;
23400;SDS011;11873;49.300;8.920;2023-07-09T21:51:31;4.67;;;3.30;;
23400;SDS011;11873;49.300;8.920;2023-07-09T21:56:32;3.67;;;3.28;;
23400;SDS011;11873;49.300;8.920;2023-07-09T22:01:32;3.85;;;3.00;;
23400;SDS011;11873;49.300;8.920;2023-07-09T22:06:32;3.67;;;2.87;;
23400;SDS011;11873;49.300;8.920;2023-07-09T22:11:32;6.12;;;3.28;;
23400;SDS011;11873;49.300;8.920;2023-07-09T22:16:32;6.37;;;3.30;;
23400;SDS011;11873;49.300;8.920;2023-07-09T22:21:33;4.62;;;3.47;;
23400;SDS011;11873;49.300;8.920;2023-07-09T22:26:35;4.65;;;3.55;;
23400;SDS011;11873;49.300;8.920;2023-07-09T22:31:35;4.40;;;3.23;;
23400;SDS011;11873;49.300;8.920;2023-07-09T22:36:36;5.03;;;3.07;;
23400;SDS011;11873;49.300;8.920;2023-07-09T22:41:36;7.70;;;3.67;;
23400;SDS011;11873;49.300;8.920;2023-07-09T22:46:36;4.90;;;3.53;;
23400;SDS011;11873;49.300;8.920;2023-07-09T22:51:36;6.30;;;3.55;;
23400;SDS011;11873;49.300;8.920;2023-07-09T22:56:37;5.10;;;3.15;;
23400;SDS011;11873;49.300;8.920;2023-07-09T23:01:37;5.90;;;3.83;;
23400;SDS011;11873;49.300;8.920;2023-07-09T23:06:37;10.05;;;4.10;;
23400;SDS011;11873;49.300;8.920;2023-07-09T23:11:39;4.10;;;3.17;;
23400;SDS011;11873;49.300;8.920;2023-07-09T23:16:39;4.57;;;3.55;;
23400;SDS011;11873;49.300;8.920;2023-07-09T23:21:39;4.97;;;3.87;;
23400;SDS011;11873;49.300;8.920;2023-07-09T23:26:44;4.90;;;3.67;;
23400;SDS011;11873;49.300;8.920;2023-07-09T23:31:46;8.00;;;4.00;;
23400;SDS011;11873;49.300;8.920;2023-07-09T23:36:47;4.37;;;3.25;;
23400;SDS011;11873;49.300;8.920;2023-07-09T23:41:47;4.87;;;3.22;;
23400;SDS011;11873;49.300;8.920;2023-07-09T23:46:48;4.35;;;3.22;;
23400;SDS011;11873;49.300;8.920;2023-07-09T23:51:48;3.70;;;3.37;;
23400;SDS011;11873;49.300;8.920;2023-07-09T23:56:49;4.78;;;3.20;;
